createdAt,value
2018-01-04T00:00:41.534Z,84.02
2018-01-04T00:03:09.879Z,84.32
2018-01-04T00:05:38.313Z,84.28
2018-01-04T00:08:07.438Z,84.05
2018-01-04T00:10:35.785Z,83.57
2018-01-04T00:13:04.129Z,83.74
2018-01-04T00:15:32.474Z,83.81
2018-01-04T00:18:02.724Z,83.74
2018-01-04T00:20:31.557Z,84.15
2018-01-04T00:22:59.892Z,84.40
2018-01-04T00:25:28.346Z,85.20
2018-01-04T00:27:56.744Z,85.62
2018-01-04T00:30:26.440Z,86.19
2018-01-04T00:32:54.880Z,86.44
2018-01-04T00:35:23.297Z,86.50
2018-01-04T00:37:52.135Z,85.98
2018-01-04T00:40:20.436Z,85.79
2018-01-04T00:42:49.519Z,85.63
2018-01-04T00:45:17.823Z,85.64
2018-01-04T00:47:46.196Z,85.81
2018-01-04T00:50:14.565Z,86.04
2018-01-04T00:52:43.497Z,86.31
2018-01-04T00:55:11.812Z,86.51
2018-01-04T00:57:40.163Z,86.84
2018-01-04T01:00:08.463Z,86.95
2018-01-04T01:02:36.787Z,86.94
2018-01-04T01:05:05.128Z,87.56
2018-01-04T01:07:33.427Z,87.88
2018-01-04T01:10:02.837Z,87.93
2018-01-04T01:12:31.192Z,87.59
2018-01-04T01:14:59.501Z,87.44
2018-01-04T01:17:27.824Z,87.03
2018-01-04T01:19:56.179Z,87.13
2018-01-04T01:22:24.483Z,87.39
2018-01-04T01:24:52.792Z,87.82
2018-01-04T01:27:21.908Z,87.92
2018-01-04T01:29:50.268Z,87.31
2018-01-04T01:32:18.585Z,86.83
2018-01-04T01:34:46.946Z,86.57
2018-01-04T01:37:15.611Z,85.91
2018-01-04T01:39:43.940Z,85.71
2018-01-04T01:42:12.271Z,85.65
2018-01-04T01:44:40.639Z,85.91
2018-01-04T01:47:08.988Z,85.60
2018-01-04T01:49:37.344Z,85.39
2018-01-04T01:52:05.644Z,85.93
2018-01-04T01:54:33.947Z,85.86
2018-01-04T01:57:02.294Z,85.91
2018-01-04T01:59:30.892Z,86.02
2018-01-04T02:01:59.195Z,86.29
2018-01-04T02:04:28.307Z,86.50
2018-01-04T02:06:56.680Z,87.03
2018-01-04T02:09:25.239Z,87.70
2018-01-04T02:11:53.600Z,88.31
2018-01-04T02:14:21.911Z,88.89
2018-01-04T02:16:50.215Z,89.12
2018-01-04T02:19:36.071Z,89.03
2018-01-04T02:22:22.013Z,88.43
2018-01-04T02:25:08.357Z,86.13
2018-01-04T02:27:54.160Z,85.61
2018-01-04T02:30:41.029Z,85.67
2018-01-04T02:33:27.315Z,85.37
2018-01-04T02:36:13.477Z,85.05
2018-01-04T02:38:59.034Z,85.58
2018-01-04T02:55:01.452Z,86.47
2018-01-04T02:57:29.765Z,86.33
2018-01-04T02:59:58.069Z,85.83
2018-01-04T03:02:26.421Z,85.44
2018-01-04T03:04:54.948Z,85.07
2018-01-04T03:07:23.285Z,85.22
2018-01-04T03:09:51.641Z,85.02
2018-01-04T03:12:19.951Z,84.89
2018-01-04T03:14:49.633Z,84.88
2018-01-04T03:17:18.602Z,84.49
2018-01-04T03:19:46.940Z,84.30
2018-01-04T03:22:20.651Z,84.29
2018-01-04T03:24:55.132Z,83.98
2018-01-04T03:27:28.901Z,84.04
2018-01-04T03:30:02.612Z,84.08
2018-01-04T03:32:37.255Z,84.07
2018-01-04T03:48:34.168Z,85.29
2018-01-04T03:51:08.439Z,85.15
2018-01-04T03:53:42.141Z,85.20
2018-01-04T03:56:15.886Z,84.48
2018-01-04T03:58:49.735Z,83.74
2018-01-04T04:01:23.463Z,83.70
2018-01-04T04:03:52.408Z,83.33
2018-01-04T04:06:26.137Z,82.81
2018-01-04T04:08:54.526Z,82.67
2018-01-04T04:11:23.051Z,82.58
2018-01-04T04:13:51.760Z,82.00
2018-01-04T04:16:20.107Z,81.45
2018-01-04T04:18:48.410Z,81.14
2018-01-04T04:21:16.724Z,81.22
2018-01-04T04:23:45.067Z,80.94
2018-01-04T04:26:13.607Z,80.91
2018-01-04T04:28:41.920Z,80.88
2018-01-04T04:31:10.908Z,81.08
2018-01-04T04:33:39.260Z,81.03
2018-01-04T04:36:07.716Z,81.47
2018-01-04T04:38:36.076Z,81.38
2018-01-04T04:41:04.376Z,81.69
2018-01-04T04:43:32.686Z,81.99
2018-01-04T04:46:01.031Z,82.03
2018-01-04T04:48:29.740Z,82.07
2018-01-04T04:50:58.051Z,81.95
2018-01-04T04:53:26.401Z,81.82
2018-01-04T04:55:54.720Z,81.89
2018-01-04T04:58:23.092Z,81.71
2018-01-04T05:00:51.997Z,81.58
2018-01-04T05:03:20.305Z,81.65
2018-01-04T05:05:49.083Z,81.59
2018-01-04T05:08:17.428Z,81.43
2018-01-04T05:10:45.728Z,81.91
2018-01-04T05:13:14.035Z,81.38
2018-01-04T05:15:42.667Z,81.92
2018-01-04T05:18:11.039Z,82.05
2018-01-04T05:20:39.876Z,82.34
2018-01-04T05:23:08.678Z,82.33
2018-01-04T05:25:37.197Z,82.23
2018-01-04T05:28:05.856Z,82.24
2018-01-04T05:30:34.585Z,82.17
2018-01-04T05:33:03.457Z,81.85
2018-01-04T05:35:32.457Z,81.92
2018-01-04T05:38:01.876Z,81.89
2018-01-04T05:40:30.796Z,81.93
2018-01-04T05:42:59.088Z,82.51
2018-01-04T05:45:27.572Z,82.51
2018-01-04T05:47:56.636Z,82.09
2018-01-04T05:50:25.163Z,82.41
2018-01-04T05:52:53.512Z,82.23
2018-01-04T05:55:21.819Z,82.58
2018-01-04T05:57:50.139Z,82.29
2018-01-04T06:00:18.504Z,82.39
2018-01-04T06:02:46.804Z,82.24
2018-01-04T06:05:15.404Z,81.83
2018-01-04T06:07:43.773Z,81.78
2018-01-04T06:10:12.072Z,82.02
2018-01-04T06:12:40.392Z,81.99
2018-01-04T06:15:09.068Z,82.14
2018-01-04T06:17:37.880Z,81.90
2018-01-04T06:20:06.176Z,82.17
2018-01-04T06:22:34.533Z,81.93
2018-01-04T06:25:02.837Z,81.81
2018-01-04T06:27:31.140Z,81.96
2018-01-04T06:29:59.839Z,82.17
2018-01-04T06:32:29.641Z,82.18
2018-01-04T06:34:57.952Z,82.17
2018-01-04T06:37:26.300Z,82.82
2018-01-04T06:39:55.754Z,82.24
2018-01-04T06:42:24.060Z,81.87
2018-01-04T06:44:53.264Z,81.85
2018-01-04T06:47:21.329Z,82.23
2018-01-04T06:49:49.924Z,82.14
2018-01-04T06:52:18.912Z,82.07
2018-01-04T06:54:47.227Z,82.20
2018-01-04T06:57:15.524Z,82.43
2018-01-04T06:59:43.853Z,81.80
2018-01-04T07:02:12.916Z,81.62
2018-01-04T07:04:41.391Z,81.59
2018-01-04T07:07:10.823Z,81.55
2018-01-04T07:09:39.163Z,81.42
2018-01-04T07:12:08.216Z,81.45
2018-01-04T07:14:36.682Z,81.10
2018-01-04T07:17:04.984Z,81.22
2018-01-04T07:19:33.288Z,81.21
2018-01-04T07:22:01.644Z,81.59
2018-01-04T07:24:29.948Z,81.20
2018-01-04T07:26:58.256Z,81.32
2018-01-04T07:29:27.170Z,80.96
2018-01-04T07:31:55.612Z,80.94
2018-01-04T07:34:23.903Z,81.88
2018-01-04T07:36:52.547Z,82.00
2018-01-04T07:39:20.859Z,81.50
2018-01-04T07:41:49.528Z,81.40
2018-01-04T07:44:17.841Z,81.46
2018-01-04T07:46:46.820Z,81.46
2018-01-04T07:49:15.716Z,81.54
2018-01-04T07:51:44.024Z,81.30
2018-01-04T07:54:12.432Z,81.95
2018-01-04T07:56:41.260Z,81.95
2018-01-04T07:59:09.703Z,82.36
2018-01-04T08:01:38.206Z,81.91
2018-01-04T08:04:06.972Z,82.43
2018-01-04T08:06:35.308Z,82.39
2018-01-04T08:09:03.687Z,82.76
2018-01-04T08:11:31.992Z,83.68
2018-01-04T08:14:00.291Z,84.29
2018-01-04T08:16:28.658Z,84.45
2018-01-04T08:18:57.479Z,84.74
2018-01-04T08:21:25.844Z,84.31
2018-01-04T08:23:54.144Z,84.33
2018-01-04T08:26:22.567Z,84.74
2018-01-04T08:28:51.444Z,85.07
2018-01-04T08:31:20.936Z,85.35
2018-01-04T08:33:50.020Z,85.08
2018-01-04T08:36:18.335Z,84.57
2018-01-04T08:38:46.692Z,85.05
2018-01-04T08:41:15.054Z,85.43
2018-01-04T08:43:43.371Z,85.72
2018-01-04T08:46:11.672Z,85.56
2018-01-04T08:48:40.017Z,86.61
2018-01-04T08:51:08.332Z,86.16
2018-01-04T08:53:36.624Z,84.79
2018-01-04T08:56:04.956Z,85.85
2018-01-04T08:58:33.256Z,86.03
2018-01-04T09:01:01.558Z,86.23
2018-01-04T09:03:29.923Z,85.17
2018-01-04T09:05:58.219Z,85.38
2018-01-04T09:08:26.531Z,85.46
2018-01-04T09:10:55.644Z,85.04
2018-01-04T09:13:23.958Z,85.41
2018-01-04T09:15:52.255Z,86.27
2018-01-04T09:18:20.647Z,86.20
2018-01-04T09:20:49.716Z,86.20
2018-01-04T09:23:18.028Z,85.97
2018-01-04T09:25:47.463Z,86.57
2018-01-04T09:28:15.820Z,86.74
2018-01-04T09:30:44.128Z,86.76
2018-01-04T09:33:12.596Z,86.42
2018-01-04T09:35:40.900Z,86.57
2018-01-04T09:38:09.284Z,86.55
2018-01-04T09:40:37.674Z,86.60
2018-01-04T09:43:05.981Z,87.29
2018-01-04T09:45:34.340Z,87.92
2018-01-04T09:48:02.636Z,87.98
2018-01-04T09:50:31.691Z,87.99
2018-01-04T09:53:00.028Z,87.96
2018-01-04T09:55:28.333Z,87.91
2018-01-04T09:57:56.656Z,87.99
2018-01-04T10:00:25.000Z,88.28
2018-01-04T10:02:53.315Z,88.74
2018-01-04T10:05:22.404Z,88.70
2018-01-04T10:07:51.504Z,88.19
2018-01-04T10:10:20.720Z,87.98
2018-01-04T10:12:49.039Z,89.55
2018-01-04T10:15:17.439Z,89.62
2018-01-04T10:17:45.767Z,89.51
2018-01-04T10:20:14.073Z,89.59
2018-01-04T10:22:42.375Z,89.96
2018-01-04T10:25:10.720Z,89.58
2018-01-04T10:27:39.086Z,88.98
2018-01-04T10:30:07.407Z,88.33
2018-01-04T10:32:35.717Z,88.23
2018-01-04T10:35:04.109Z,87.89
2018-01-04T10:37:32.408Z,88.02
2018-01-04T10:40:00.787Z,88.61
2018-01-04T10:42:29.812Z,89.29
2018-01-04T10:44:58.111Z,89.60
2018-01-04T10:47:27.223Z,89.71
2018-01-04T10:49:55.283Z,89.78
2018-01-04T10:52:24.368Z,90.08
2018-01-04T10:54:52.860Z,90.21
2018-01-04T10:57:21.991Z,89.89
2018-01-04T10:59:50.324Z,89.64
2018-01-04T11:02:18.640Z,89.69
2018-01-04T11:04:46.989Z,89.39
2018-01-04T11:07:16.064Z,89.27
2018-01-04T11:09:44.363Z,89.15
2018-01-04T11:12:13.764Z,88.91
2018-01-04T11:14:42.107Z,89.33
2018-01-04T11:17:10.565Z,90.19
2018-01-04T11:19:38.857Z,90.44
2018-01-04T11:22:07.281Z,90.63
2018-01-04T11:24:35.597Z,90.57
2018-01-04T11:27:03.908Z,90.73
2018-01-04T11:29:32.278Z,91.02
2018-01-04T11:32:00.575Z,91.12
2018-01-04T11:34:29.024Z,91.07
2018-01-04T11:36:57.335Z,91.04
2018-01-04T11:39:26.022Z,91.10
2018-01-04T11:41:54.323Z,91.09
2018-01-04T11:44:22.628Z,91.19
2018-01-04T11:46:51.384Z,91.41
2018-01-04T11:49:19.685Z,91.51
2018-01-04T11:51:47.991Z,91.15
2018-01-04T11:54:16.355Z,90.93
2018-01-04T11:56:44.656Z,90.96
2018-01-04T11:59:12.967Z,91.08
2018-01-04T12:01:42.087Z,90.97
2018-01-04T12:04:10.392Z,90.95
2018-01-04T12:06:38.709Z,90.75
2018-01-04T12:09:07.232Z,90.41
2018-01-04T12:11:35.543Z,89.82
2018-01-04T12:14:04.012Z,89.98
2018-01-04T12:16:32.316Z,89.72
2018-01-04T12:19:00.628Z,89.70
2018-01-04T12:21:28.987Z,89.87
2018-01-04T12:23:57.301Z,89.97
2018-01-04T12:26:25.639Z,89.77
2018-01-04T12:28:54.763Z,90.31
2018-01-04T12:31:23.232Z,90.53
2018-01-04T12:33:51.545Z,90.70
2018-01-04T12:36:19.856Z,90.56
2018-01-04T12:38:49.001Z,90.60
2018-01-04T12:41:17.468Z,90.51
2018-01-04T12:43:45.572Z,90.85
2018-01-04T12:46:15.252Z,91.78
2018-01-04T12:48:43.693Z,92.10
2018-01-04T12:51:12.221Z,91.64
2018-01-04T12:53:41.063Z,91.34
2018-01-04T12:56:09.436Z,91.28
2018-01-04T12:58:37.735Z,91.87
2018-01-04T13:01:06.804Z,92.32
2018-01-04T13:03:35.315Z,92.70
2018-01-04T13:06:04.383Z,92.69
2018-01-04T13:08:32.684Z,92.36
2018-01-04T13:11:01.815Z,92.00
2018-01-04T13:13:30.160Z,91.70
2018-01-04T13:15:58.524Z,91.58
2018-01-04T13:18:27.152Z,91.49
2018-01-04T13:20:55.461Z,91.59
2018-01-04T13:23:23.808Z,91.44
2018-01-04T13:25:52.112Z,91.36
2018-01-04T13:28:20.516Z,91.24
2018-01-04T13:30:48.659Z,91.02
2018-01-04T13:33:16.975Z,91.22
2018-01-04T13:35:45.332Z,91.45
2018-01-04T13:38:13.844Z,91.62
2018-01-04T13:40:42.952Z,92.09
2018-01-04T13:43:12.023Z,91.81
2018-01-04T13:45:40.398Z,91.69
2018-01-04T13:48:08.715Z,91.37
2018-01-04T13:50:37.041Z,91.17
2018-01-04T13:53:05.393Z,91.18
2018-01-04T13:55:33.691Z,91.40
2018-01-04T13:58:02.013Z,91.81
2018-01-04T14:00:30.454Z,91.87
2018-01-04T14:02:58.789Z,91.97
2018-01-04T14:05:27.117Z,91.64
2018-01-04T14:07:55.596Z,91.95
2018-01-04T14:10:23.905Z,92.37
2018-01-04T14:12:53.172Z,92.47
2018-01-04T14:15:24.726Z,92.56
2018-01-04T14:17:53.827Z,93.08
2018-01-04T14:20:22.208Z,93.48
2018-01-04T14:22:50.420Z,93.84
2018-01-04T14:25:19.208Z,93.81
2018-01-04T14:27:47.512Z,94.05
2018-01-04T14:30:15.929Z,94.01
2018-01-04T14:32:44.328Z,94.11
2018-01-04T14:35:13.661Z,94.07
2018-01-04T14:37:42.051Z,94.04
2018-01-04T14:40:10.465Z,94.19
2018-01-04T14:42:38.872Z,94.13
2018-01-04T14:45:07.944Z,94.00
2018-01-04T14:47:36.306Z,93.91
2018-01-04T14:50:04.658Z,94.12
2018-01-04T14:52:32.968Z,94.35
2018-01-04T14:55:01.269Z,94.48
2018-01-04T14:57:30.393Z,94.50
2018-01-04T14:59:58.711Z,94.51
2018-01-04T15:02:27.020Z,94.36
2018-01-04T15:04:55.415Z,94.43
2018-01-04T15:07:23.723Z,94.33
2018-01-04T15:09:52.023Z,94.50
2018-01-04T15:12:20.380Z,94.51
2018-01-04T15:14:48.682Z,94.47
2018-01-04T15:17:16.988Z,94.41
2018-01-04T15:19:46.211Z,94.33
2018-01-04T15:22:14.532Z,94.35
2018-01-04T15:24:42.924Z,94.35
2018-01-04T15:27:11.299Z,94.29
2018-01-04T15:29:39.624Z,94.29
2018-01-04T15:32:07.996Z,94.33
2018-01-04T15:34:36.300Z,94.42
2018-01-04T15:37:04.620Z,94.43
2018-01-04T15:39:32.979Z,94.30
2018-01-04T15:42:01.303Z,94.19
2018-01-04T15:44:29.621Z,94.14
2018-01-04T15:46:58.024Z,94.18
2018-01-04T15:49:26.517Z,94.30
2018-01-04T15:51:55.308Z,94.25
2018-01-04T15:54:23.652Z,94.19
2018-01-04T15:56:51.988Z,94.16
2018-01-04T15:59:20.441Z,94.31
2018-01-04T16:01:48.848Z,94.31
2018-01-04T16:04:17.920Z,94.23
2018-01-04T16:06:47.081Z,94.06
2018-01-04T16:09:15.441Z,93.99
2018-01-04T16:11:43.800Z,93.96
2018-01-04T16:14:12.913Z,94.15
2018-01-04T16:16:41.260Z,94.01
2018-01-04T16:19:09.755Z,94.11
2018-01-04T16:21:38.133Z,94.16
2018-01-04T16:24:07.236Z,94.20
2018-01-04T16:26:35.601Z,94.08
2018-01-04T16:29:03.925Z,94.17
2018-01-04T16:31:32.283Z,94.08
2018-01-04T16:34:00.670Z,93.96
2018-01-04T16:36:29.040Z,93.87
2018-01-04T16:38:57.422Z,93.73
2018-01-04T16:41:25.828Z,93.74
2018-01-04T16:43:54.187Z,93.77
2018-01-04T16:46:22.504Z,93.82
2018-01-04T16:48:51.040Z,93.65
2018-01-04T16:51:19.360Z,93.60
2018-01-04T16:53:47.684Z,93.52
2018-01-04T16:56:16.052Z,93.75
2018-01-04T16:58:45.125Z,93.82
2018-01-04T17:01:16.805Z,93.82
2018-01-04T17:03:48.290Z,93.77
2018-01-04T17:06:16.682Z,93.73
2018-01-04T17:08:45.031Z,93.84
2018-01-04T17:11:13.404Z,93.94
2018-01-04T17:13:41.721Z,93.98
2018-01-04T17:16:10.034Z,93.92
2018-01-04T17:18:39.223Z,93.91
2018-01-04T17:21:07.560Z,94.08
2018-01-04T17:23:35.953Z,94.06
2018-01-04T17:26:04.909Z,94.06
2018-01-04T17:28:33.344Z,93.99
2018-01-04T17:31:02.344Z,93.96
2018-01-04T17:33:31.177Z,93.73
2018-01-04T17:35:59.879Z,93.82
2018-01-04T17:38:28.247Z,93.73
2018-01-04T17:40:57.965Z,93.69
2018-01-04T17:43:26.280Z,93.42
2018-01-04T17:45:55.371Z,93.50
2018-01-04T17:48:23.859Z,93.54
2018-01-04T17:50:52.593Z,93.44
2018-01-04T17:53:21.078Z,93.48
2018-01-04T17:55:50.049Z,93.37
2018-01-04T17:58:19.148Z,93.40
2018-01-04T18:00:48.181Z,93.36
2018-01-04T18:03:17.406Z,93.25
2018-01-04T18:05:46.004Z,93.07
2018-01-04T18:08:15.096Z,93.09
2018-01-04T18:10:44.708Z,93.18
2018-01-04T18:13:13.175Z,93.40
2018-01-04T18:15:41.957Z,93.40
2018-01-04T18:18:10.337Z,93.57
2018-01-04T18:20:39.325Z,93.31
2018-01-04T18:23:07.884Z,93.47
2018-01-04T18:25:36.697Z,93.39
2018-01-04T18:28:05.019Z,93.44
2018-01-04T18:30:33.612Z,93.30
2018-01-04T18:33:02.340Z,93.35
2018-01-04T18:35:30.518Z,93.48
2018-01-04T18:37:59.672Z,93.42
2018-01-04T18:40:28.284Z,93.44
2018-01-04T18:42:56.881Z,93.43
2018-01-04T18:45:25.401Z,93.33
2018-01-04T18:47:54.649Z,93.18
2018-01-04T18:50:23.276Z,93.14
2018-01-04T18:52:52.649Z,93.28
2018-01-04T18:55:21.852Z,93.48
2018-01-04T18:57:51.064Z,93.40
2018-01-04T19:00:19.959Z,93.36
2018-01-04T19:02:49.895Z,93.44
2018-01-04T19:05:19.132Z,93.37
2018-01-04T19:07:53.723Z,93.31
2018-01-04T19:10:32.262Z,93.27
2018-01-04T19:13:04.409Z,93.30
2018-01-04T19:15:55.460Z,93.25
2018-01-04T19:18:24.794Z,93.30
2018-01-04T19:20:54.493Z,93.36
2018-01-04T19:23:23.795Z,93.30
2018-01-04T19:25:52.731Z,93.08
2018-01-04T19:28:21.991Z,93.33
2018-01-04T19:30:51.052Z,93.37
2018-01-04T19:33:20.960Z,93.17
2018-01-04T19:35:49.913Z,93.20
2018-01-04T19:38:19.182Z,92.95
2018-01-04T19:40:47.682Z,92.95
2018-01-04T19:43:16.528Z,92.97
2018-01-04T19:45:45.613Z,92.89
2018-01-04T19:48:16.176Z,92.87
2018-01-04T19:50:46.274Z,92.71
2018-01-04T19:53:15.770Z,92.70
2018-01-04T19:55:44.305Z,92.65
2018-01-04T19:58:13.972Z,92.61
2018-01-04T20:00:43.478Z,92.63
2018-01-04T20:03:12.181Z,92.60
2018-01-04T20:05:42.314Z,92.61
2018-01-04T20:08:11.465Z,92.35
2018-01-04T20:10:40.008Z,92.30
2018-01-04T20:13:08.795Z,92.12
2018-01-04T20:15:37.915Z,92.43
2018-01-04T20:18:07.088Z,92.47
2018-01-04T20:20:35.508Z,92.44
2018-01-04T20:23:03.884Z,92.49
2018-01-04T20:25:32.927Z,92.17
2018-01-04T20:28:01.779Z,92.28
2018-01-04T20:30:30.821Z,92.36
2018-01-04T20:32:59.919Z,92.33
2018-01-04T20:35:31.665Z,92.17
2018-01-04T20:38:00.633Z,92.11
2018-01-04T20:40:29.785Z,92.17
2018-01-04T20:42:58.322Z,92.11
2018-01-04T20:45:26.895Z,92.03
2018-01-04T20:47:57.060Z,92.07
2018-01-04T20:50:25.799Z,92.28
2018-01-04T20:52:54.310Z,92.68
2018-01-04T20:55:22.742Z,92.87
2018-01-04T20:57:51.671Z,93.44
2018-01-04T21:00:20.306Z,93.96
2018-01-04T21:02:48.576Z,93.71
2018-01-04T21:05:17.531Z,93.64
2018-01-04T21:07:47.288Z,94.12
2018-01-04T21:10:16.371Z,93.18
2018-01-04T21:12:45.507Z,93.33
2018-01-04T21:15:14.870Z,89.98
2018-01-04T21:17:43.896Z,87.73
2018-01-04T21:20:12.802Z,85.73
2018-01-04T21:22:41.195Z,86.76
2018-01-04T21:25:10.103Z,86.16
2018-01-04T21:27:38.795Z,86.37
2018-01-04T21:30:07.651Z,85.20
2018-01-04T21:32:36.724Z,85.43
2018-01-04T21:35:05.754Z,85.21
2018-01-04T21:37:34.968Z,84.06
2018-01-04T21:40:04.067Z,82.81
2018-01-04T21:42:33.067Z,81.69
2018-01-04T21:45:02.043Z,80.14
2018-01-04T21:47:30.893Z,81.40
2018-01-04T21:49:59.532Z,80.48
2018-01-04T21:52:27.902Z,79.48
2018-01-04T21:54:56.335Z,76.00
2018-01-04T21:57:24.786Z,77.41
2018-01-04T21:59:53.229Z,76.83
2018-01-04T22:02:21.635Z,78.65
2018-01-04T22:04:51.344Z,78.11
2018-01-04T22:07:20.630Z,78.57
2018-01-04T22:09:49.915Z,78.65
2018-01-04T22:12:18.584Z,79.59
2018-01-04T22:14:47.281Z,80.10
2018-01-04T22:17:15.650Z,80.60
2018-01-04T22:19:44.405Z,80.24
2018-01-04T22:22:13.596Z,79.88
2018-01-04T22:24:42.956Z,79.89
2018-01-04T22:27:12.271Z,80.02
2018-01-04T22:29:41.737Z,80.45
2018-01-04T22:32:10.931Z,79.44
2018-01-04T22:34:39.868Z,79.74
2018-01-04T22:37:09.041Z,79.22
2018-01-04T22:39:37.915Z,79.80
2018-01-04T22:42:06.887Z,79.30
2018-01-04T22:44:35.427Z,79.55
2018-01-04T22:47:03.789Z,80.17
2018-01-04T22:49:32.944Z,80.00
2018-01-04T22:52:01.303Z,78.75
2018-01-04T22:54:30.173Z,77.95
2018-01-04T22:56:59.079Z,77.94
2018-01-04T22:59:28.519Z,76.92
2018-01-04T23:01:57.447Z,77.39
2018-01-04T23:04:25.800Z,78.51
2018-01-04T23:06:54.643Z,79.09
2018-01-04T23:09:24.771Z,78.86
2018-01-04T23:11:53.831Z,77.19
2018-01-04T23:14:22.235Z,77.05
2018-01-04T23:16:51.324Z,78.86
2018-01-04T23:19:19.733Z,78.55
2018-01-04T23:21:48.100Z,77.88
2018-01-04T23:24:16.583Z,79.20
2018-01-04T23:26:45.942Z,80.55
2018-01-04T23:29:14.516Z,81.11
2018-01-04T23:31:42.905Z,81.89
2018-01-04T23:34:11.259Z,82.62
2018-01-04T23:36:39.618Z,83.47
2018-01-04T23:39:08.039Z,83.47
2018-01-04T23:41:37.324Z,82.63
2018-01-04T23:44:06.384Z,81.94
2018-01-04T23:46:35.494Z,82.22
2018-01-04T23:49:03.847Z,82.82
2018-01-04T23:51:32.345Z,83.65
2018-01-04T23:54:03.018Z,84.30
2018-01-04T23:56:31.592Z,83.83
2018-01-04T23:58:59.946Z,84.21
